createdAt,value
2023-04-27T00:02:00.784Z,2.99
2023-04-27T00:04:28.181Z,2.84
2023-04-27T00:06:55.874Z,2.97
2023-04-27T00:09:23.155Z,2.81
2023-04-27T00:11:50.514Z,3.02
2023-04-27T00:14:17.674Z,3.01
2023-04-27T00:16:44.584Z,3.40
2023-04-27T00:19:11.937Z,3.08
2023-04-27T00:21:39.118Z,2.87
2023-04-27T00:24:06.316Z,3.27
2023-04-27T00:26:33.366Z,3.24
2023-04-27T00:29:00.465Z,3.17
2023-04-27T00:31:27.628Z,3.28
2023-04-27T00:33:54.769Z,3.15
2023-04-27T00:36:21.888Z,3.24
2023-04-27T00:38:49.818Z,3.36
2023-04-27T00:41:16.521Z,3.53
2023-04-27T00:43:44.257Z,3.87
2023-04-27T00:46:12.897Z,3.60
2023-04-27T00:48:41.274Z,4.03
2023-04-27T00:51:08.091Z,4.06
2023-04-27T00:53:34.820Z,3.84
2023-04-27T00:56:01.599Z,4.04
2023-04-27T00:58:31.188Z,4.18
2023-04-27T01:00:58.330Z,4.10
2023-04-27T01:03:25.194Z,3.65
2023-04-27T01:05:52.642Z,3.82
2023-04-27T01:08:21.271Z,3.68
2023-04-27T01:10:47.982Z,3.81
2023-04-27T01:13:15.522Z,3.85
2023-04-27T01:15:43.972Z,4.05
2023-04-27T01:18:10.707Z,3.84
2023-04-27T01:20:53.067Z,4.00
2023-04-27T01:23:20.302Z,3.84
2023-04-27T01:25:47.361Z,3.70
2023-04-27T01:28:15.397Z,3.63
2023-04-27T01:30:42.250Z,3.86
2023-04-27T01:33:09.057Z,3.72
2023-04-27T01:35:36.261Z,3.62
2023-04-27T01:38:03.379Z,3.92
2023-04-27T01:40:30.634Z,3.80
2023-04-27T01:43:07.236Z,4.58
2023-04-27T01:45:34.078Z,3.77
2023-04-27T01:48:01.038Z,3.60
2023-04-27T01:50:27.946Z,3.90
2023-04-27T01:52:55.002Z,3.55
2023-04-27T01:55:22.324Z,3.81
2023-04-27T01:57:49.493Z,3.66
2023-04-27T02:00:16.582Z,3.79
2023-04-27T02:02:43.733Z,3.35
2023-04-27T02:05:11.140Z,3.58
2023-04-27T02:07:38.278Z,3.43
2023-04-27T02:10:05.761Z,3.50
2023-04-27T02:12:32.528Z,3.38
2023-04-27T02:15:02.156Z,3.51
2023-04-27T02:17:29.214Z,3.77
2023-04-27T02:19:56.366Z,3.51
2023-04-27T02:22:23.793Z,3.15
2023-04-27T02:24:50.850Z,3.32
2023-04-27T02:27:18.976Z,3.50
2023-04-27T02:29:46.759Z,3.40
2023-04-27T02:32:14.099Z,3.42
2023-04-27T02:34:41.317Z,3.36
2023-04-27T02:37:08.593Z,3.42
2023-04-27T02:39:35.609Z,3.11
2023-04-27T02:42:02.713Z,3.56
2023-04-27T02:44:29.731Z,3.29
2023-04-27T02:46:56.796Z,3.69
2023-04-27T02:49:23.648Z,3.34
2023-04-27T02:51:50.884Z,3.33
2023-04-27T02:54:17.661Z,4.24
2023-04-27T02:56:44.810Z,3.99
2023-04-27T02:59:13.114Z,3.70
2023-04-27T03:01:41.076Z,3.86
2023-04-27T03:04:09.070Z,4.12
2023-04-27T03:06:36.106Z,3.78
2023-04-27T03:09:06.289Z,4.05
2023-04-27T03:11:33.037Z,3.79
2023-04-27T03:13:59.928Z,3.79
2023-04-27T03:16:27.942Z,3.89
2023-04-27T03:18:54.862Z,4.25
2023-04-27T03:21:21.919Z,4.32
2023-04-27T03:23:48.799Z,4.10
2023-04-27T03:26:16.027Z,4.03
2023-04-27T03:28:43.985Z,4.00
2023-04-27T03:31:12.079Z,4.10
2023-04-27T03:33:38.915Z,3.95
2023-04-27T03:36:07.129Z,3.99
2023-04-27T03:38:34.562Z,4.02
2023-04-27T03:41:01.583Z,3.92
2023-04-27T03:43:28.404Z,4.15
2023-04-27T03:45:55.509Z,3.90
2023-04-27T03:48:22.845Z,4.20
2023-04-27T03:50:49.763Z,4.31
2023-04-27T03:53:16.508Z,4.10
2023-04-27T03:55:43.773Z,4.17
2023-04-27T03:58:10.599Z,4.14
2023-04-27T04:00:51.520Z,4.16
2023-04-27T04:03:18.936Z,4.36
2023-04-27T04:05:45.974Z,4.59
2023-04-27T04:08:14.040Z,4.73
2023-04-27T04:10:40.818Z,4.25
2023-04-27T04:13:07.957Z,4.00
2023-04-27T04:15:34.734Z,4.51
2023-04-27T04:18:01.738Z,4.34
2023-04-27T04:20:28.623Z,4.51
2023-04-27T04:23:03.584Z,4.53
2023-04-27T04:25:33.505Z,4.70
2023-04-27T04:28:00.933Z,4.70
2023-04-27T04:30:28.182Z,4.58
2023-04-27T04:32:56.561Z,4.62
2023-04-27T04:35:23.360Z,4.42
2023-04-27T04:37:50.798Z,4.65
2023-04-27T04:40:18.140Z,4.82
2023-04-27T04:42:50.923Z,4.83
2023-04-27T04:45:17.966Z,4.65
2023-04-27T04:47:44.748Z,4.53
2023-04-27T04:50:11.475Z,4.78
2023-04-27T04:52:38.218Z,4.86
2023-04-27T04:55:05.565Z,4.88
2023-04-27T04:57:32.629Z,4.60
2023-04-27T04:59:59.572Z,5.05
2023-04-27T05:02:27.208Z,4.98
2023-04-27T05:04:55.108Z,4.92
2023-04-27T05:07:24.743Z,4.74
2023-04-27T05:09:52.849Z,5.13
2023-04-27T05:12:19.592Z,5.42
2023-04-27T05:14:46.714Z,6.46
2023-04-27T05:17:13.614Z,6.09
2023-04-27T05:19:40.628Z,5.47
2023-04-27T05:22:07.677Z,5.34
2023-04-27T05:24:34.401Z,5.77
2023-04-27T05:27:02.475Z,5.36
2023-04-27T05:29:29.364Z,4.90
2023-04-27T05:31:56.162Z,5.05
2023-04-27T05:34:23.107Z,4.85
2023-04-27T05:36:49.982Z,4.83
2023-04-27T05:39:17.224Z,4.86
2023-04-27T05:41:43.985Z,4.95
2023-04-27T05:44:11.170Z,4.92
2023-04-27T05:46:39.065Z,4.81
2023-04-27T05:49:06.220Z,4.97
2023-04-27T05:51:33.407Z,5.26
2023-04-27T05:54:00.138Z,5.95
2023-04-27T05:56:26.902Z,5.74
2023-04-27T05:58:55.094Z,6.04
2023-04-27T06:01:21.831Z,5.46
2023-04-27T06:03:48.652Z,5.67
2023-04-27T06:07:08.004Z,5.18
2023-04-27T06:09:34.982Z,4.41
2023-04-27T06:12:33.174Z,4.76
2023-04-27T06:15:00.218Z,4.66
2023-04-27T06:17:27.346Z,4.84
2023-04-27T06:19:54.239Z,4.64
2023-04-27T06:22:20.937Z,4.71
2023-04-27T06:24:47.899Z,4.47
2023-04-27T06:27:14.784Z,4.47
2023-04-27T06:29:41.595Z,4.64
2023-04-27T06:32:09.849Z,4.97
2023-04-27T06:34:36.634Z,4.91
2023-04-27T06:37:03.661Z,4.76
2023-04-27T06:39:31.694Z,4.78
2023-04-27T06:41:58.433Z,4.66
2023-04-27T06:44:25.257Z,4.57
2023-04-27T06:46:52.087Z,4.33
2023-04-27T06:49:18.838Z,4.51
2023-04-27T06:51:45.651Z,3.70
2023-04-27T06:54:12.751Z,3.84
2023-04-27T06:56:39.454Z,3.78
2023-04-27T06:59:08.567Z,3.35
2023-04-27T07:01:36.356Z,3.00
2023-04-27T07:04:05.440Z,2.81
2023-04-27T07:06:35.179Z,3.12
2023-04-27T07:09:03.406Z,3.30
2023-04-27T07:11:33.841Z,3.24
2023-04-27T07:14:00.509Z,2.92
2023-04-27T07:16:27.514Z,3.04
2023-04-27T07:18:54.348Z,3.31
2023-04-27T07:21:21.353Z,3.00
2023-04-27T07:23:48.216Z,3.23
2023-04-27T07:26:15.640Z,3.53
2023-04-27T07:28:43.154Z,3.36
2023-04-27T07:31:12.983Z,3.52
2023-04-27T07:33:41.066Z,3.30
2023-04-27T07:36:07.956Z,3.40
2023-04-27T07:38:35.519Z,3.41
2023-04-27T07:41:02.678Z,3.45
2023-04-27T07:43:31.397Z,3.80
2023-04-27T07:45:58.484Z,4.08
2023-04-27T07:48:26.075Z,3.82
2023-04-27T07:50:54.550Z,3.68
2023-04-27T07:53:21.336Z,3.78
2023-04-27T07:55:48.034Z,3.41
2023-04-27T07:58:17.522Z,3.95
2023-04-27T08:00:45.406Z,4.05
2023-04-27T08:03:12.966Z,3.90
2023-04-27T08:05:40.477Z,3.96
2023-04-27T08:08:07.544Z,3.71
2023-04-27T08:10:36.792Z,3.91
2023-04-27T08:13:03.562Z,4.29
2023-04-27T08:15:30.789Z,4.11
2023-04-27T08:17:57.783Z,4.18
2023-04-27T08:20:25.011Z,4.11
2023-04-27T08:22:54.632Z,4.04
2023-04-27T08:25:22.377Z,4.51
2023-04-27T08:27:49.452Z,4.43
2023-04-27T08:30:17.527Z,4.48
2023-04-27T08:32:47.194Z,4.89
2023-04-27T08:35:14.028Z,4.89
2023-04-27T08:37:41.138Z,4.55
2023-04-27T08:40:09.784Z,4.60
2023-04-27T08:42:36.839Z,4.25
2023-04-27T08:45:06.541Z,4.35
2023-04-27T08:47:42.666Z,4.71
2023-04-27T08:50:11.642Z,4.75
2023-04-27T08:52:39.111Z,4.75
2023-04-27T08:55:07.813Z,4.35
2023-04-27T08:57:35.051Z,4.57
2023-04-27T09:00:02.840Z,4.48
2023-04-27T09:02:29.967Z,4.52
2023-04-27T09:04:57.684Z,4.64
2023-04-27T09:07:26.225Z,4.91
2023-04-27T09:10:02.653Z,4.58
2023-04-27T09:12:29.763Z,5.16
2023-04-27T09:14:57.942Z,7.70
2023-04-27T09:17:25.862Z,5.37
2023-04-27T09:20:04.167Z,5.27
2023-04-27T09:22:31.254Z,5.44
2023-04-27T09:25:00.939Z,5.24
2023-04-27T09:27:28.739Z,5.27
2023-04-27T09:29:55.729Z,5.59
2023-04-27T09:32:22.793Z,5.83
2023-04-27T09:34:49.880Z,4.82
2023-04-27T09:37:17.153Z,4.43
2023-04-27T09:39:44.554Z,4.49
2023-04-27T09:42:12.716Z,4.49
2023-04-27T09:44:39.972Z,4.79
2023-04-27T09:47:06.701Z,4.90
2023-04-27T09:49:33.824Z,4.41
2023-04-27T09:52:00.884Z,4.10
2023-04-27T09:54:27.970Z,4.06
2023-04-27T09:57:12.842Z,3.93
2023-04-27T10:00:08.684Z,4.38
2023-04-27T10:02:54.450Z,4.08
2023-04-27T10:05:41.098Z,4.10
2023-04-27T10:08:08.332Z,4.04
2023-04-27T10:10:48.540Z,4.25
2023-04-27T10:13:23.730Z,3.93
2023-04-27T10:15:50.636Z,3.95
2023-04-27T10:18:27.963Z,3.79
2023-04-27T10:20:55.046Z,3.80
2023-04-27T10:23:25.946Z,4.09
2023-04-27T10:25:54.146Z,3.92
2023-04-27T10:28:21.242Z,3.90
2023-04-27T10:30:48.038Z,3.76
2023-04-27T10:33:19.992Z,3.80
2023-04-27T10:35:57.450Z,3.73
2023-04-27T10:38:28.932Z,3.53
2023-04-27T10:41:54.534Z,3.52
2023-04-27T10:44:48.135Z,3.75
2023-04-27T10:47:16.399Z,3.35
2023-04-27T10:49:43.636Z,3.44
2023-04-27T10:52:10.441Z,3.29
2023-04-27T10:54:38.564Z,2.98
2023-04-27T10:57:10.093Z,3.08
2023-04-27T10:59:51.439Z,3.04
2023-04-27T11:02:24.656Z,3.02
2023-04-27T11:04:52.202Z,3.11
2023-04-27T11:07:26.058Z,2.97
2023-04-27T11:09:53.635Z,3.15
2023-04-27T11:12:20.415Z,3.21
2023-04-27T11:14:47.503Z,3.27
2023-04-27T11:17:15.254Z,3.25
2023-04-27T11:19:48.942Z,3.46
2023-04-27T11:22:16.407Z,3.34
2023-04-27T11:24:50.423Z,3.37
2023-04-27T11:27:17.919Z,3.23
2023-04-27T11:29:44.784Z,3.32
2023-04-27T11:32:22.461Z,3.15
2023-04-27T11:34:53.615Z,2.29
2023-04-27T11:37:25.826Z,2.44
2023-04-27T11:39:53.306Z,2.23
2023-04-27T11:42:25.508Z,2.56
2023-04-27T11:44:52.846Z,2.74
2023-04-27T11:47:19.634Z,2.41
2023-04-27T11:49:48.130Z,2.19
2023-04-27T11:52:16.679Z,2.00
2023-04-27T11:55:09.156Z,2.28
2023-04-27T11:57:36.130Z,2.51
2023-04-27T12:00:05.749Z,2.76
2023-04-27T12:02:33.874Z,2.93
2023-04-27T12:05:01.084Z,2.77
2023-04-27T12:07:28.468Z,2.80
2023-04-27T12:09:57.530Z,2.80
2023-04-27T12:12:25.158Z,2.81
2023-04-27T12:14:53.066Z,2.80
2023-04-27T12:17:27.196Z,2.32
2023-04-27T12:19:54.237Z,2.20
2023-04-27T12:22:21.273Z,2.52
2023-04-27T12:24:50.207Z,2.63
2023-04-27T12:27:16.901Z,2.80
2023-04-27T12:29:43.696Z,2.36
2023-04-27T12:32:10.903Z,2.09
2023-04-27T12:34:38.161Z,1.91
2023-04-27T12:37:05.560Z,1.59
2023-04-27T12:39:32.687Z,1.78
2023-04-27T12:41:59.378Z,1.74
2023-04-27T12:44:26.143Z,1.62
2023-04-27T12:46:53.050Z,1.44
2023-04-27T12:49:21.284Z,1.31
2023-04-27T12:51:49.597Z,1.26
2023-04-27T12:54:16.979Z,1.10
2023-04-27T12:56:44.274Z,0.95
2023-04-27T12:59:11.798Z,0.85
2023-04-27T13:01:38.549Z,0.81
2023-04-27T13:04:07.056Z,0.75
2023-04-27T13:06:34.375Z,0.82
2023-04-27T13:09:01.123Z,0.86
2023-04-27T13:11:27.898Z,0.86
2023-04-27T13:13:55.054Z,0.91
2023-04-27T13:16:21.910Z,0.82
2023-04-27T13:18:50.836Z,0.81
2023-04-27T13:21:17.723Z,0.75
2023-04-27T13:23:45.459Z,0.80
2023-04-27T13:26:13.839Z,0.82
2023-04-27T13:28:42.571Z,0.82
2023-04-27T13:31:09.450Z,0.93
2023-04-27T13:33:41.344Z,0.80
2023-04-27T13:36:11.631Z,0.85
2023-04-27T13:38:38.406Z,0.68
2023-04-27T13:41:13.999Z,0.68
2023-04-27T13:43:40.757Z,0.80
2023-04-27T13:46:07.861Z,0.68
2023-04-27T13:48:35.018Z,0.79
2023-04-27T13:51:02.819Z,0.78
2023-04-27T13:53:32.310Z,0.66
2023-04-27T13:55:59.308Z,0.71
2023-04-27T13:58:27.512Z,0.63
2023-04-27T14:00:54.941Z,0.78
2023-04-27T14:03:22.229Z,0.67
2023-04-27T14:05:49.401Z,0.74
2023-04-27T14:08:16.408Z,0.80
2023-04-27T14:10:47.075Z,0.82
2023-04-27T14:13:13.904Z,0.74
2023-04-27T14:15:41.243Z,0.64
2023-04-27T14:18:08.513Z,0.81
2023-04-27T14:20:37.011Z,0.71
2023-04-27T14:23:05.005Z,0.69
2023-04-27T14:25:31.875Z,0.68
2023-04-27T14:28:02.168Z,0.74
2023-04-27T14:30:32.411Z,0.71
2023-04-27T14:33:00.214Z,0.67
2023-04-27T14:35:28.623Z,0.76
2023-04-27T14:37:55.366Z,0.73
2023-04-27T14:40:22.304Z,0.72
2023-04-27T14:42:51.756Z,0.77
2023-04-27T14:45:24.155Z,0.86
2023-04-27T14:47:52.399Z,0.81
2023-04-27T14:50:20.217Z,0.83
2023-04-27T14:52:50.072Z,0.75
2023-04-27T14:55:19.698Z,0.82
2023-04-27T14:57:47.257Z,0.90
2023-04-27T15:00:16.976Z,0.85
2023-04-27T15:02:45.000Z,0.79
2023-04-27T15:05:12.126Z,0.85
2023-04-27T15:07:40.157Z,0.91
2023-04-27T15:10:07.556Z,0.78
2023-04-27T15:12:34.651Z,1.00
2023-04-27T15:15:02.249Z,0.91
2023-04-27T15:17:30.773Z,0.88
2023-04-27T15:19:57.522Z,0.85
2023-04-27T15:22:26.050Z,1.04
2023-04-27T15:24:54.715Z,0.89
2023-04-27T15:27:22.475Z,0.91
2023-04-27T15:29:50.284Z,0.90
2023-04-27T15:32:19.515Z,0.92
2023-04-27T15:34:48.711Z,0.84
2023-04-27T15:37:17.122Z,0.95
2023-04-27T15:39:49.692Z,0.82
2023-04-27T15:44:58.312Z,1.05
2023-04-27T15:47:26.860Z,0.97
2023-04-27T15:49:57.900Z,1.12
2023-04-27T15:52:26.302Z,1.11
2023-04-27T15:54:53.687Z,1.12
2023-04-27T15:57:20.479Z,0.99
2023-04-27T15:59:51.071Z,0.88
2023-04-27T16:02:18.265Z,0.91
2023-04-27T16:04:45.133Z,0.97
2023-04-27T16:07:12.864Z,1.09
2023-04-27T16:09:40.005Z,1.04
2023-04-27T16:12:09.777Z,1.03
2023-04-27T16:14:36.802Z,1.08
2023-04-27T16:17:03.478Z,1.12
2023-04-27T16:19:30.316Z,1.13
2023-04-27T16:21:57.171Z,1.06
2023-04-27T16:24:25.745Z,1.08
2023-04-27T16:26:54.484Z,1.13
2023-04-27T16:29:21.986Z,1.15
2023-04-27T16:31:57.852Z,1.29
2023-04-27T16:34:25.085Z,1.05
2023-04-27T16:36:52.069Z,1.27
2023-04-27T16:39:20.250Z,1.18
2023-04-27T16:41:48.487Z,1.32
2023-04-27T16:44:16.078Z,1.19
2023-04-27T16:46:43.399Z,1.19
2023-04-27T16:49:10.404Z,1.17
2023-04-27T16:51:37.541Z,1.30
2023-04-27T16:54:04.649Z,1.16
2023-04-27T16:59:49.307Z,1.24
2023-04-27T17:02:24.672Z,1.36
2023-04-27T17:04:53.836Z,1.36
2023-04-27T17:07:21.146Z,1.23
2023-04-27T17:09:48.207Z,1.42
2023-04-27T17:12:15.343Z,1.24
2023-04-27T17:14:42.474Z,1.27
2023-04-27T17:17:09.959Z,1.27
2023-04-27T17:19:36.984Z,1.10
2023-04-27T17:22:05.070Z,1.20
2023-04-27T17:24:32.651Z,1.19
2023-04-27T17:26:59.681Z,1.19
2023-04-27T17:29:26.919Z,1.33
2023-04-27T17:31:54.033Z,1.34
2023-04-27T17:34:20.759Z,1.45
2023-04-27T17:36:47.774Z,1.52
2023-04-27T17:39:15.179Z,1.28
2023-04-27T17:41:42.251Z,1.41
2023-04-27T17:44:11.711Z,1.43
2023-04-27T17:46:41.484Z,1.46
2023-04-27T17:49:08.554Z,1.66
2023-04-27T17:51:35.554Z,1.54
2023-04-27T17:54:02.525Z,1.47
2023-04-27T17:56:29.486Z,1.78
2023-04-27T17:58:56.677Z,1.74
2023-04-27T18:01:24.541Z,1.68
2023-04-27T18:03:52.051Z,1.71
2023-04-27T18:06:19.126Z,1.57
2023-04-27T18:08:45.992Z,1.77
2023-04-27T18:11:13.038Z,1.70
2023-04-27T18:13:39.985Z,1.63
2023-04-27T18:16:07.146Z,1.57
2023-04-27T18:18:34.106Z,1.67
2023-04-27T18:21:00.833Z,1.95
2023-04-27T18:23:27.513Z,1.94
2023-04-27T18:25:58.860Z,1.86
2023-04-27T18:28:25.568Z,1.87
2023-04-27T18:30:53.060Z,1.63
2023-04-27T18:33:19.746Z,1.75
2023-04-27T18:35:46.630Z,1.90
2023-04-27T18:38:13.374Z,2.02
2023-04-27T18:40:42.941Z,2.01
2023-04-27T18:43:12.484Z,1.85
2023-04-27T18:45:40.388Z,1.99
2023-04-27T18:48:08.421Z,2.14
2023-04-27T18:53:26.667Z,1.89
2023-04-27T18:56:26.656Z,1.94
2023-04-27T18:59:01.431Z,2.10
2023-04-27T19:01:39.016Z,1.83
2023-04-27T19:04:08.729Z,2.01
2023-04-27T19:06:36.966Z,2.09
2023-04-27T19:09:05.023Z,2.18
2023-04-27T19:11:31.744Z,2.28
2023-04-27T19:13:59.914Z,2.21
2023-04-27T19:16:27.822Z,2.06
2023-04-27T19:22:18.417Z,2.03
2023-04-27T19:24:45.746Z,1.98
2023-04-27T19:27:13.942Z,2.23
2023-04-27T19:29:54.606Z,1.97
2023-04-27T19:32:21.992Z,2.01
2023-04-27T19:34:50.583Z,1.99
2023-04-27T19:37:19.436Z,2.13
2023-04-27T19:39:46.155Z,2.01
2023-04-27T19:42:15.944Z,2.34
2023-04-27T19:44:43.814Z,2.09
2023-04-27T19:47:10.484Z,2.08
2023-04-27T19:49:38.291Z,2.78
2023-04-27T19:52:06.359Z,2.48
2023-04-27T19:54:35.508Z,2.33
2023-04-27T19:57:03.651Z,2.21
2023-04-27T19:59:30.328Z,2.15
2023-04-27T20:01:58.092Z,2.05
2023-04-27T20:04:25.528Z,2.06
2023-04-27T20:06:52.705Z,2.31
2023-04-27T20:09:19.707Z,2.17
2023-04-27T20:11:47.867Z,2.16
2023-04-27T20:14:14.942Z,2.34
2023-04-27T20:16:42.893Z,2.51
2023-04-27T20:19:09.842Z,2.42
2023-04-27T20:21:36.815Z,2.55
2023-04-27T20:24:03.750Z,2.34
2023-04-27T20:26:30.777Z,2.89
2023-04-27T20:28:57.573Z,3.17
2023-04-27T20:31:27.227Z,3.22
2023-04-27T20:33:57.333Z,3.04
2023-04-27T20:36:25.811Z,3.06
2023-04-27T20:38:52.695Z,2.88
2023-04-27T20:41:20.355Z,2.82
2023-04-27T20:43:47.053Z,2.73
2023-04-27T20:46:14.300Z,2.69
2023-04-27T20:48:42.133Z,2.71
2023-04-27T20:51:08.889Z,2.62
2023-04-27T20:53:35.886Z,2.46
2023-04-27T20:56:03.087Z,2.82
2023-04-27T20:58:30.262Z,2.35
2023-04-27T21:00:57.538Z,2.29
2023-04-27T21:03:24.918Z,2.37
2023-04-27T21:05:53.457Z,2.51
2023-04-27T21:08:20.266Z,2.18
2023-04-27T21:10:47.006Z,2.15
2023-04-27T21:13:14.800Z,2.39
2023-04-27T21:15:41.845Z,2.26
2023-04-27T21:18:16.029Z,2.17
2023-04-27T21:20:49.823Z,1.92
2023-04-27T21:23:17.046Z,2.16
2023-04-27T21:25:45.040Z,2.02
2023-04-27T21:28:11.794Z,2.00
2023-04-27T21:30:38.709Z,2.11
2023-04-27T21:33:05.878Z,2.06
2023-04-27T21:35:32.635Z,1.88
2023-04-27T21:38:00.626Z,1.90
2023-04-27T21:40:27.508Z,1.86
2023-04-27T21:42:54.215Z,1.92
2023-04-27T21:45:22.436Z,1.85
2023-04-27T21:47:49.261Z,2.00
2023-04-27T21:50:16.165Z,2.11
2023-04-27T21:52:44.695Z,2.05
2023-04-27T21:55:12.113Z,2.01
2023-04-27T21:57:38.956Z,2.10
2023-04-27T22:00:07.447Z,3.26
2023-04-27T22:02:34.446Z,2.53
2023-04-27T22:05:01.575Z,2.29
2023-04-27T22:07:28.528Z,2.42
2023-04-27T22:09:55.926Z,2.11
2023-04-27T22:12:24.145Z,2.03
2023-04-27T22:14:51.154Z,2.19
2023-04-27T22:17:18.976Z,1.94
2023-04-27T22:19:45.862Z,2.24
2023-04-27T22:22:12.708Z,2.11
2023-04-27T22:24:39.702Z,2.23
2023-04-27T22:27:07.903Z,2.25
2023-04-27T22:29:35.021Z,2.37
2023-04-27T22:32:02.293Z,2.34
2023-04-27T22:34:29.408Z,2.00
2023-04-27T22:36:57.683Z,2.27
2023-04-27T22:39:25.177Z,2.46
2023-04-27T22:41:51.933Z,2.48
2023-04-27T22:44:18.987Z,2.43
2023-04-27T22:46:45.897Z,2.36
2023-04-27T22:49:12.875Z,2.38
2023-04-27T22:51:40.873Z,2.30
2023-04-27T22:54:09.024Z,2.46
2023-04-27T22:56:37.192Z,2.57
2023-04-27T22:59:03.910Z,2.78
2023-04-27T23:01:32.228Z,2.63
2023-04-27T23:03:59.318Z,2.53
2023-04-27T23:06:26.203Z,2.56
2023-04-27T23:08:53.880Z,2.58
2023-04-27T23:11:20.649Z,2.55
2023-04-27T23:13:47.942Z,2.38
2023-04-27T23:16:15.041Z,2.60
2023-04-27T23:18:42.325Z,2.18
2023-04-27T23:21:10.311Z,2.24
2023-04-27T23:23:37.142Z,2.46
2023-04-27T23:26:04.000Z,2.50
2023-04-27T23:28:30.879Z,2.22
2023-04-27T23:30:58.189Z,2.37
2023-04-27T23:33:25.476Z,2.41
2023-04-27T23:35:52.183Z,2.47
2023-04-27T23:38:19.311Z,2.62
2023-04-27T23:40:46.804Z,2.46
2023-04-27T23:43:13.740Z,2.40
2023-04-27T23:45:41.763Z,2.43
2023-04-27T23:48:09.117Z,2.52
2023-04-27T23:50:36.253Z,2.41
2023-04-27T23:53:03.220Z,2.46
2023-04-27T23:55:30.750Z,2.59
2023-04-27T23:57:58.812Z,2.37
